sensor_id;sensor_type;location;lat;lon;timestamp;temperature;humidity
13596;DHT22;6868;52.544;13.416;2023-03-16T00:01:09;1.90;99.90
13596;DHT22;6868;52.544;13.416;2023-03-16T00:03:36;1.80;99.90
13596;DHT22;6868;52.544;13.416;2023-03-16T00:06:03;1.90;99.90
13596;DHT22;6868;52.544;13.416;2023-03-16T00:08:30;1.80;99.90
13596;DHT22;6868;52.544;13.416;2023-03-16T00:10:58;1.80;99.90
13596;DHT22;6868;52.544;13.416;2023-03-16T00:13:27;1.80;99.90
13596;DHT22;6868;52.544;13.416;2023-03-16T00:15:54;1.80;99.90
13596;DHT22;6868;52.544;13.416;2023-03-16T00:18:21;1.90;99.90
13596;DHT22;6868;52.544;13.416;2023-03-16T00:20:51;1.80;99.90
13596;DHT22;6868;52.544;13.416;2023-03-16T00:23:20;1.80;99.90
13596;DHT22;6868;52.544;13.416;2023-03-16T00:25:51;1.80;99.90
13596;DHT22;6868;52.544;13.416;2023-03-16T00:28:20;1.70;99.90
13596;DHT22;6868;52.544;13.416;2023-03-16T00:30:47;1.70;99.90
13596;DHT22;6868;52.544;13.416;2023-03-16T00:33:14;1.70;99.90
13596;DHT22;6868;52.544;13.416;2023-03-16T00:35:41;1.70;99.90
13596;DHT22;6868;52.544;13.416;2023-03-16T00:38:14;1.70;99.90
13596;DHT22;6868;52.544;13.416;2023-03-16T00:40:41;1.70;99.90
13596;DHT22;6868;52.544;13.416;2023-03-16T00:43:07;1.80;99.90
13596;DHT22;6868;52.544;13.416;2023-03-16T00:45:37;1.70;99.90
13596;DHT22;6868;52.544;13.416;2023-03-16T00:48:04;1.80;99.90
13596;DHT22;6868;52.544;13.416;2023-03-16T00:50:32;1.70;99.90
13596;DHT22;6868;52.544;13.416;2023-03-16T00:52:58;1.60;99.90
13596;DHT22;6868;52.544;13.416;2023-03-16T00:55:27;1.70;99.90
13596;DHT22;6868;52.544;13.416;2023-03-16T00:57:54;1.70;99.90
13596;DHT22;6868;52.544;13.416;2023-03-16T01:00:21;1.70;99.90
13596;DHT22;6868;52.544;13.416;2023-03-16T01:02:52;1.60;99.90
13596;DHT22;6868;52.544;13.416;2023-03-16T01:05:19;1.60;99.90
13596;DHT22;6868;52.544;13.416;2023-03-16T01:07:46;1.70;99.90
13596;DHT22;6868;52.544;13.416;2023-03-16T01:10:12;1.60;99.90
13596;DHT22;6868;52.544;13.416;2023-03-16T01:12:41;1.60;99.90
13596;DHT22;6868;52.544;13.416;2023-03-16T01:15:09;1.60;99.90
13596;DHT22;6868;52.544;13.416;2023-03-16T01:17:36;1.60;99.90
13596;DHT22;6868;52.544;13.416;2023-03-16T01:20:05;1.60;99.90
13596;DHT22;6868;52.544;13.416;2023-03-16T01:22:36;1.60;99.90
13596;DHT22;6868;52.544;13.416;2023-03-16T01:25:03;1.50;99.90
13596;DHT22;6868;52.544;13.416;2023-03-16T01:27:30;1.50;99.90
13596;DHT22;6868;52.544;13.416;2023-03-16T01:29:57;1.50;99.90
13596;DHT22;6868;52.544;13.416;2023-03-16T01:32:24;1.50;99.90
13596;DHT22;6868;52.544;13.416;2023-03-16T01:34:51;1.50;99.90
13596;DHT22;6868;52.544;13.416;2023-03-16T01:37:19;1.50;99.90
13596;DHT22;6868;52.544;13.416;2023-03-16T01:39:46;1.60;99.90
13596;DHT22;6868;52.544;13.416;2023-03-16T01:42:13;1.50;99.90
13596;DHT22;6868;52.544;13.416;2023-03-16T01:44:50;1.40;99.90
13596;DHT22;6868;52.544;13.416;2023-03-16T01:47:18;1.50;99.90
13596;DHT22;6868;52.544;13.416;2023-03-16T01:49:46;1.50;99.90
13596;DHT22;6868;52.544;13.416;2023-03-16T01:52:13;1.50;99.90
13596;DHT22;6868;52.544;13.416;2023-03-16T01:54:44;1.50;99.90
13596;DHT22;6868;52.544;13.416;2023-03-16T01:57:12;1.60;99.90
13596;DHT22;6868;52.544;13.416;2023-03-16T01:59:41;1.50;99.90
13596;DHT22;6868;52.544;13.416;2023-03-16T02:02:10;1.40;99.90
13596;DHT22;6868;52.544;13.416;2023-03-16T02:04:41;1.50;99.90
13596;DHT22;6868;52.544;13.416;2023-03-16T02:07:09;1.50;99.90
13596;DHT22;6868;52.544;13.416;2023-03-16T02:09:36;1.40;99.90
13596;DHT22;6868;52.544;13.416;2023-03-16T02:12:06;1.50;99.90
13596;DHT22;6868;52.544;13.416;2023-03-16T02:14:33;1.50;99.90
13596;DHT22;6868;52.544;13.416;2023-03-16T02:17:00;1.40;99.90
13596;DHT22;6868;52.544;13.416;2023-03-16T02:19:33;1.40;99.90
13596;DHT22;6868;52.544;13.416;2023-03-16T02:22:01;1.40;99.90
13596;DHT22;6868;52.544;13.416;2023-03-16T02:24:30;1.40;99.90
13596;DHT22;6868;52.544;13.416;2023-03-16T02:26:58;1.40;99.90
13596;DHT22;6868;52.544;13.416;2023-03-16T02:32:03;1.30;99.90
13596;DHT22;6868;52.544;13.416;2023-03-16T02:34:30;1.30;99.90
13596;DHT22;6868;52.544;13.416;2023-03-16T02:36:57;1.30;99.90
13596;DHT22;6868;52.544;13.416;2023-03-16T02:39:25;1.30;99.90
13596;DHT22;6868;52.544;13.416;2023-03-16T02:41:52;1.30;99.90
13596;DHT22;6868;52.544;13.416;2023-03-16T02:44:19;1.30;99.90
13596;DHT22;6868;52.544;13.416;2023-03-16T02:46:48;1.30;99.90
13596;DHT22;6868;52.544;13.416;2023-03-16T02:49:18;1.30;99.90
13596;DHT22;6868;52.544;13.416;2023-03-16T02:51:47;1.30;99.90
13596;DHT22;6868;52.544;13.416;2023-03-16T02:54:13;1.20;99.90
13596;DHT22;6868;52.544;13.416;2023-03-16T02:56:40;1.20;99.90
13596;DHT22;6868;52.544;13.416;2023-03-16T02:59:07;1.20;99.90
13596;DHT22;6868;52.544;13.416;2023-03-16T03:01:34;1.10;99.90
13596;DHT22;6868;52.544;13.416;2023-03-16T03:04:01;1.10;99.90
13596;DHT22;6868;52.544;13.416;2023-03-16T03:06:29;1.10;99.90
13596;DHT22;6868;52.544;13.416;2023-03-16T03:08:56;1.10;99.90
13596;DHT22;6868;52.544;13.416;2023-03-16T03:11:24;1.00;99.90
13596;DHT22;6868;52.544;13.416;2023-03-16T03:13:50;1.00;99.90
13596;DHT22;6868;52.544;13.416;2023-03-16T03:16:17;1.00;99.90
13596;DHT22;6868;52.544;13.416;2023-03-16T03:18:44;1.10;99.90
13596;DHT22;6868;52.544;13.416;2023-03-16T03:21:11;1.00;99.90
13596;DHT22;6868;52.544;13.416;2023-03-16T03:23:39;1.10;99.90
13596;DHT22;6868;52.544;13.416;2023-03-16T03:26:06;1.10;99.90
13596;DHT22;6868;52.544;13.416;2023-03-16T03:28:32;1.00;99.90
13596;DHT22;6868;52.544;13.416;2023-03-16T03:30:59;1.00;99.90
13596;DHT22;6868;52.544;13.416;2023-03-16T03:33:27;1.00;99.90
13596;DHT22;6868;52.544;13.416;2023-03-16T03:35:54;1.20;99.90
13596;DHT22;6868;52.544;13.416;2023-03-16T03:38:21;1.20;99.90
13596;DHT22;6868;52.544;13.416;2023-03-16T03:40:52;1.30;99.90
13596;DHT22;6868;52.544;13.416;2023-03-16T03:43:19;1.30;99.90
13596;DHT22;6868;52.544;13.416;2023-03-16T03:45:46;1.20;99.90
13596;DHT22;6868;52.544;13.416;2023-03-16T03:48:12;1.20;99.90
13596;DHT22;6868;52.544;13.416;2023-03-16T03:50:39;1.20;99.90
13596;DHT22;6868;52.544;13.416;2023-03-16T03:53:06;1.10;99.90
13596;DHT22;6868;52.544;13.416;2023-03-16T03:55:33;1.20;99.90
13596;DHT22;6868;52.544;13.416;2023-03-16T03:58:01;1.30;99.90
13596;DHT22;6868;52.544;13.416;2023-03-16T04:00:28;1.30;99.90
13596;DHT22;6868;52.544;13.416;2023-03-16T04:02:55;1.20;99.90
13596;DHT22;6868;52.544;13.416;2023-03-16T04:05:22;1.20;99.90
13596;DHT22;6868;52.544;13.416;2023-03-16T04:07:52;1.10;99.90
13596;DHT22;6868;52.544;13.416;2023-03-16T04:10:22;1.20;99.90
13596;DHT22;6868;52.544;13.416;2023-03-16T04:12:49;1.20;99.90
13596;DHT22;6868;52.544;13.416;2023-03-16T04:15:17;1.20;99.90
13596;DHT22;6868;52.544;13.416;2023-03-16T04:20:11;1.20;99.90
13596;DHT22;6868;52.544;13.416;2023-03-16T04:22:40;1.20;99.90
13596;DHT22;6868;52.544;13.416;2023-03-16T04:25:08;1.10;99.90
13596;DHT22;6868;52.544;13.416;2023-03-16T04:27:35;1.10;99.90
13596;DHT22;6868;52.544;13.416;2023-03-16T04:30:02;1.10;99.90
13596;DHT22;6868;52.544;13.416;2023-03-16T04:32:31;1.00;99.90
13596;DHT22;6868;52.544;13.416;2023-03-16T04:34:58;1.00;99.90
13596;DHT22;6868;52.544;13.416;2023-03-16T04:37:26;0.90;99.90
13596;DHT22;6868;52.544;13.416;2023-03-16T04:39:54;1.00;99.90
13596;DHT22;6868;52.544;13.416;2023-03-16T04:42:23;1.10;99.90
13596;DHT22;6868;52.544;13.416;2023-03-16T04:44:51;1.10;99.90
13596;DHT22;6868;52.544;13.416;2023-03-16T04:47:17;1.00;99.90
13596;DHT22;6868;52.544;13.416;2023-03-16T04:49:45;1.00;99.90
13596;DHT22;6868;52.544;13.416;2023-03-16T04:52:12;1.10;99.90
13596;DHT22;6868;52.544;13.416;2023-03-16T04:54:39;1.00;99.90
13596;DHT22;6868;52.544;13.416;2023-03-16T04:57:05;1.00;99.90
13596;DHT22;6868;52.544;13.416;2023-03-16T04:59:32;1.00;99.90
13596;DHT22;6868;52.544;13.416;2023-03-16T05:01:59;0.90;99.90
13596;DHT22;6868;52.544;13.416;2023-03-16T05:04:26;1.00;99.90
13596;DHT22;6868;52.544;13.416;2023-03-16T05:06:54;1.10;99.90
13596;DHT22;6868;52.544;13.416;2023-03-16T05:09:21;1.00;99.90
13596;DHT22;6868;52.544;13.416;2023-03-16T05:11:48;1.00;99.90
13596;DHT22;6868;52.544;13.416;2023-03-16T05:14:15;1.00;99.90
13596;DHT22;6868;52.544;13.416;2023-03-16T05:16:42;1.00;99.90
13596;DHT22;6868;52.544;13.416;2023-03-16T05:19:08;0.90;99.90
13596;DHT22;6868;52.544;13.416;2023-03-16T05:21:36;1.00;99.90
13596;DHT22;6868;52.544;13.416;2023-03-16T05:24:05;1.00;99.90
13596;DHT22;6868;52.544;13.416;2023-03-16T05:26:32;1.00;99.90
13596;DHT22;6868;52.544;13.416;2023-03-16T05:28:59;1.00;99.90
13596;DHT22;6868;52.544;13.416;2023-03-16T05:31:26;1.10;99.90
13596;DHT22;6868;52.544;13.416;2023-03-16T05:33:53;1.00;99.90
13596;DHT22;6868;52.544;13.416;2023-03-16T05:36:20;1.00;99.90
13596;DHT22;6868;52.544;13.416;2023-03-16T05:38:49;1.00;99.90
13596;DHT22;6868;52.544;13.416;2023-03-16T05:41:17;1.00;99.90
13596;DHT22;6868;52.544;13.416;2023-03-16T05:43:45;0.90;99.90
13596;DHT22;6868;52.544;13.416;2023-03-16T05:46:13;1.00;99.90
13596;DHT22;6868;52.544;13.416;2023-03-16T05:48:40;1.00;99.90
13596;DHT22;6868;52.544;13.416;2023-03-16T05:51:07;1.10;99.90
13596;DHT22;6868;52.544;13.416;2023-03-16T05:53:33;1.20;99.90
13596;DHT22;6868;52.544;13.416;2023-03-16T05:56:01;1.20;99.90
13596;DHT22;6868;52.544;13.416;2023-03-16T05:58:29;1.30;99.90
13596;DHT22;6868;52.544;13.416;2023-03-16T06:03:25;1.30;99.90
13596;DHT22;6868;52.544;13.416;2023-03-16T06:05:52;1.50;99.90
13596;DHT22;6868;52.544;13.416;2023-03-16T06:08:19;1.40;99.90
13596;DHT22;6868;52.544;13.416;2023-03-16T06:10:46;1.50;99.90
13596;DHT22;6868;52.544;13.416;2023-03-16T06:15:41;2.50;99.90
13596;DHT22;6868;52.544;13.416;2023-03-16T06:18:08;3.00;99.90
13596;DHT22;6868;52.544;13.416;2023-03-16T06:20:35;3.50;99.90
13596;DHT22;6868;52.544;13.416;2023-03-16T06:23:03;3.60;99.90
13596;DHT22;6868;52.544;13.416;2023-03-16T06:25:30;3.80;99.90
13596;DHT22;6868;52.544;13.416;2023-03-16T06:28:02;4.10;99.90
13596;DHT22;6868;52.544;13.416;2023-03-16T06:30:29;4.50;99.90
13596;DHT22;6868;52.544;13.416;2023-03-16T06:33:00;4.90;99.90
13596;DHT22;6868;52.544;13.416;2023-03-16T06:35:27;4.80;99.90
13596;DHT22;6868;52.544;13.416;2023-03-16T06:37:54;4.70;99.90
13596;DHT22;6868;52.544;13.416;2023-03-16T06:40:20;4.70;99.90
13596;DHT22;6868;52.544;13.416;2023-03-16T06:42:47;5.20;99.90
